Tehachapi, CA

3:39 AM PDT on May 28, 2018 (GMT -0700)
Tehachapi Municipal

Weather History for KTSP - December, 2011

Change the Weather History Date:

Saturday, December 3, 2011

  Actual Average Record
Temperature  
Mean Temperature 32 °F -  
Max Temperature 46 °F 55 °F 62 °F (2015)
Min Temperature 19 °F 31 °F 19 °F (2011)
Degree Days  
Heating Degree Days 32    
Moisture  
Dew Point 4 °F    
Average Humidity 33    
Maximum Humidity 68    
Minimum Humidity 13    
Precipitation  
Precipitation 0.00 in - - ()
Sea Level Pressure  
Sea Level Pressure 30.09 in    
Wind  
Wind Speed 7 mph (ESE)    
Max Wind Speed 20 mph    
Max Gust Speed 30 mph    
Visibility 9 miles    
Events      
Averages and records for this station are not official NWS values.
T = Trace of Precipitation, MM = Missing Value Source: NWS Daily Summary

Daily Weather History Graph

Daily Weather History Graph

Search for Another Location

Airport or City:

Astronomy

Dec. 03, 2011 Rise Set
Actual Time 6:45 AM PST 4:41 PM PST
Civil Twilight 6:17 AM PST 5:09 PM PST
Nautical Twilight 5:46 AM PST 5:40 PM PST
Astronomical Twilight 5:15 AM PST 6:11 PM PST
Moon 12:37 PM PST (12/3) 12:30 AM PST (12/3)
Length of Visible Light 10h 51m
Length of Day
9h 56m
Waxing Gibbous, 63% of the Moon is Illuminated
Dec 3
Waxing Gibbous
Dec 10
Full
Dec 17
Last Quarter
Dec 24
New
Dec 31
First Quarter

Hourly Weather History & Observations

Time (PST) Temp. Windchill Dew Point Humidity Pressure Visibility Wind Dir Wind Speed Gust Speed Precip Events Conditions
12:15 AM 23.0 °F - 10.4 °F 59% 29.99 in 10.0 mi Calm Calm - N/A   Clear
12:35 AM 21.2 °F 13.6 °F 10.4 °F 63% 29.99 in 10.0 mi East 5.8 mph - N/A   Clear
12:55 AM 24.8 °F - 10.4 °F 54% 29.98 in 10.0 mi Calm Calm - N/A   Clear
1:15 AM 23.0 °F 17.0 °F 10.4 °F 59% 29.98 in 10.0 mi SE 4.6 mph - N/A   Clear
1:35 AM 23.0 °F 18.4 °F 10.4 °F 59% 29.98 in 10.0 mi ENE 3.5 mph - N/A   Clear
1:55 AM 23.0 °F - 10.4 °F 59% 29.98 in 10.0 mi Calm Calm - N/A   Clear
2:15 AM 19.4 °F 14.3 °F 10.4 °F 68% 29.99 in 10.0 mi North 3.5 mph - N/A   Clear
2:35 AM 21.2 °F 10.9 °F 10.4 °F 63% 29.98 in 10.0 mi SE 9.2 mph - N/A   Clear
2:55 AM 26.6 °F 18.2 °F 10.4 °F 51% 29.98 in 10.0 mi SE 8.1 mph - N/A   Clear
3:15 AM 26.6 °F 17.5 °F 10.4 °F 51% 29.99 in 8.0 mi SE 9.2 mph - N/A   Clear
3:35 AM 26.6 °F - 10.4 °F 51% 29.99 in 8.0 mi Calm Calm - N/A   Clear
4:15 AM 24.8 °F 16.1 °F 10.4 °F 54% 30.00 in 9.0 mi ESE 8.1 mph - N/A   Clear
4:35 AM 24.8 °F 12.9 °F 10.4 °F 54% 30.00 in 9.0 mi ESE 13.8 mph - N/A   Clear
4:55 AM 30.2 °F 20.8 °F 8.6 °F 40% 30.00 in 9.0 mi ESE 11.5 mph - N/A   Clear
5:15 AM 26.6 °F 16.2 °F 8.6 °F 47% 30.01 in 9.0 mi ESE 11.5 mph - N/A   Clear
5:35 AM 26.6 °F 18.2 °F 6.8 °F 43% 30.02 in 9.0 mi SE 8.1 mph - N/A   Clear
5:55 AM 28.4 °F 22.2 °F 6.8 °F 40% 30.03 in 10.0 mi ESE 5.8 mph - N/A   Clear
6:15 AM 30.2 °F 20.8 °F 5.0 °F 34% 30.03 in 10.0 mi East 11.5 mph - N/A   Clear
6:35 AM 32.0 °F 23.6 °F 3.2 °F 30% 30.04 in 10.0 mi ESE 10.4 mph - N/A   Clear
6:55 AM 30.2 °F 21.9 °F 3.2 °F 32% 30.04 in 8.0 mi East 9.2 mph - N/A   Clear
7:15 AM 30.2 °F 21.9 °F 5.0 °F 34% 30.05 in 8.0 mi ESE 9.2 mph - N/A   Clear
7:35 AM 32.0 °F 22.5 °F 3.2 °F 30% 30.06 in 7.0 mi East 12.7 mph 19.6 mph N/A   Clear
8:15 AM 33.8 °F 25.3 °F 3.2 °F 28% 30.08 in 8.0 mi ESE 11.5 mph - N/A   Clear
8:35 AM 35.6 °F 28.0 °F 5.0 °F 28% 30.09 in 5.0 mi ESE 10.4 mph - N/A   Haze
9:15 AM 37.4 °F 28.2 °F 1.4 °F 22% 30.10 in 8.0 mi SE 16.1 mph 23.0 mph N/A   Clear
9:35 AM 39.2 °F 30.2 °F 1.4 °F 21% 30.10 in 9.0 mi SE 17.3 mph 21.9 mph N/A   Clear
9:55 AM 39.2 °F 30.5 °F 1.4 °F 21% 30.11 in 8.0 mi ESE 16.1 mph 24.2 mph N/A   Clear
10:15 AM 39.2 °F 29.8 °F 1.4 °F 21% 30.12 in 7.0 mi SE 18.4 mph 26.5 mph N/A   Clear
10:35 AM 41.0 °F 32.5 °F 1.4 °F 19% 30.11 in 7.0 mi SSE 17.3 mph 29.9 mph N/A   Clear
10:55 AM 41.0 °F 31.9 °F -0.4 °F 18% 30.11 in 7.0 mi SE 19.6 mph 25.3 mph N/A   Clear
11:15 AM 42.8 °F 34.5 °F -0.4 °F 16% 30.10 in 8.0 mi SE 18.4 mph 24.2 mph N/A   Clear
11:35 AM 44.6 °F 37.8 °F -0.4 °F 15% 30.10 in 8.0 mi SE 15.0 mph 21.9 mph N/A   Clear
11:55 AM 44.6 °F 38.4 °F -0.4 °F 15% 30.09 in 9.0 mi East 12.7 mph 23.0 mph N/A   Clear
12:15 PM 44.6 °F 38.4 °F -0.4 °F 15% 30.09 in 9.0 mi ESE 12.7 mph 19.6 mph N/A   Clear
12:35 PM 44.6 °F 37.2 °F -2.2 °F 14% 30.10 in 9.0 mi East 17.3 mph 21.9 mph N/A   Clear
12:55 PM 44.6 °F 38.1 °F -0.4 °F 15% 30.10 in 8.0 mi East 13.8 mph 20.7 mph N/A   Clear
1:15 PM 44.6 °F 37.8 °F -0.4 °F 15% 30.09 in 9.0 mi East 15.0 mph 20.7 mph N/A   Clear
1:35 PM 44.6 °F 39.2 °F -2.2 °F 14% 30.09 in 9.0 mi East 10.4 mph 20.7 mph N/A   Clear
1:55 PM 46.4 °F 40.4 °F -2.2 °F 13% 30.10 in 8.0 mi ESE 13.8 mph 19.6 mph N/A   Clear
2:15 PM 44.6 °F 38.4 °F -2.2 °F 14% 30.11 in 10.0 mi East 12.7 mph 18.4 mph N/A   Clear
2:35 PM 44.6 °F 39.2 °F -2.2 °F 14% 30.11 in 9.0 mi ENE 10.4 mph - N/A   Clear
2:55 PM 46.4 °F 43.5 °F -2.2 °F 13% 30.11 in 10.0 mi ENE 5.8 mph - N/A   Clear
3:15 PM 44.6 °F 38.8 °F -2.2 °F 14% 30.12 in 8.0 mi East 11.5 mph - N/A   Clear
3:35 PM 44.6 °F 38.8 °F -2.2 °F 14% 30.12 in 8.0 mi East 11.5 mph 17.3 mph N/A   Clear
3:55 PM 42.8 °F 37.5 °F -4.0 °F 14% 30.13 in 9.0 mi East 9.2 mph - N/A   Clear
4:15 PM 41.0 °F 37.1 °F -2.2 °F 16% 30.13 in 6.0 mi ESE 5.8 mph - N/A   Haze
4:35 PM 39.2 °F 35.0 °F -4.0 °F 16% 30.14 in 9.0 mi SE 5.8 mph - N/A   Clear
4:55 PM 35.6 °F 32.8 °F 14.0 °F 41% 30.15 in 8.0 mi NW 3.5 mph - N/A   Clear
5:15 PM 33.8 °F - 15.8 °F 48% 30.16 in 10.0 mi Calm Calm - N/A   Clear
5:35 PM 30.2 °F - 6.8 °F 37% 30.17 in 10.0 mi Calm Calm - N/A   Clear
5:55 PM 26.6 °F 22.6 °F 10.4 °F 51% 30.18 in 10.0 mi ESE 3.5 mph - N/A   Clear
6:15 PM 28.4 °F 21.2 °F 6.8 °F 40% 30.19 in 10.0 mi East 6.9 mph - N/A   Clear
6:35 PM 28.4 °F - 8.6 °F 43% 30.18 in 9.0 mi Calm Calm - N/A   Clear
6:55 PM 26.6 °F 19.1 °F 6.8 °F 43% 30.18 in 10.0 mi SSW 6.9 mph - N/A   Clear
7:35 PM 28.4 °F 23.3 °F 1.4 °F 31% 30.20 in 10.0 mi ESE 4.6 mph - N/A   Clear
7:55 PM 28.4 °F 20.4 °F -0.4 °F 29% 30.21 in 10.0 mi South 8.1 mph - N/A   Clear
8:15 PM 32.0 °F 25.6 °F -0.4 °F 25% 30.22 in 10.0 mi SSE 6.9 mph - N/A   Clear
8:35 PM 30.2 °F - -0.4 °F 27% 30.22 in 10.0 mi Calm Calm - N/A   Clear
8:55 PM 28.4 °F 22.2 °F 1.4 °F 31% 30.22 in 10.0 mi East 5.8 mph - N/A   Clear
9:15 PM 26.6 °F 22.6 °F 1.4 °F 34% 30.23 in 10.0 mi ESE 3.5 mph - N/A   Clear
9:35 PM 24.8 °F 19.1 °F 1.4 °F 36% 30.23 in 10.0 mi East 4.6 mph - N/A   Clear
9:55 PM 23.0 °F 15.8 °F 1.4 °F 39% 30.23 in 10.0 mi ESE 5.8 mph - N/A   Clear
10:35 PM 32.0 °F 24.2 °F -0.4 °F 25% 30.23 in 10.0 mi ESE 9.2 mph - N/A   Clear
10:55 PM 24.8 °F 14.6 °F 3.2 °F 40% 30.23 in 10.0 mi ESE 10.4 mph - N/A   Clear
11:35 PM 23.0 °F 11.7 °F 1.4 °F 39% 30.23 in 10.0 mi SE 11.5 mph - N/A   Clear
11:55 PM 24.8 °F - 1.4 °F 36% 30.23 in 10.0 mi Calm Calm - N/A   Clear